sensor_id;sensor_type;location;lat;lon;timestamp;temperature;humidity
26304;DHT22;70693;48.680;8.890;2023-06-22T00:00:54;21.70;99.90
26304;DHT22;70693;48.680;8.890;2023-06-22T00:03:22;21.70;99.90
26304;DHT22;70693;48.680;8.890;2023-06-22T00:05:49;21.70;99.90
26304;DHT22;70693;48.680;8.890;2023-06-22T00:08:18;21.70;99.90
26304;DHT22;70693;48.680;8.890;2023-06-22T00:10:44;21.70;99.90
26304;DHT22;70693;48.680;8.890;2023-06-22T00:13:10;21.70;99.90
26304;DHT22;70693;48.680;8.890;2023-06-22T00:15:38;21.70;99.90
26304;DHT22;70693;48.680;8.890;2023-06-22T00:18:04;21.70;99.90
26304;DHT22;70693;48.680;8.890;2023-06-22T00:20:30;21.70;99.90
26304;DHT22;70693;48.680;8.890;2023-06-22T00:22:57;21.70;99.90
26304;DHT22;70693;48.680;8.890;2023-06-22T00:25:23;21.70;99.90
26304;DHT22;70693;48.680;8.890;2023-06-22T00:27:49;21.70;99.90
26304;DHT22;70693;48.680;8.890;2023-06-22T00:30:16;21.70;99.90
26304;DHT22;70693;48.680;8.890;2023-06-22T00:32:42;21.70;99.90
26304;DHT22;70693;48.680;8.890;2023-06-22T00:35:07;21.70;99.90
26304;DHT22;70693;48.680;8.890;2023-06-22T00:37:34;21.70;99.90
26304;DHT22;70693;48.680;8.890;2023-06-22T00:40:01;21.70;99.90
26304;DHT22;70693;48.680;8.890;2023-06-22T00:42:27;21.70;99.90
26304;DHT22;70693;48.680;8.890;2023-06-22T00:44:53;21.70;99.90
26304;DHT22;70693;48.680;8.890;2023-06-22T00:47:18;21.70;99.90
26304;DHT22;70693;48.680;8.890;2023-06-22T00:49:45;21.70;99.90
26304;DHT22;70693;48.680;8.890;2023-06-22T00:52:12;21.70;99.90
26304;DHT22;70693;48.680;8.890;2023-06-22T00:54:49;21.70;99.90
26304;DHT22;70693;48.680;8.890;2023-06-22T00:57:17;21.70;99.90
26304;DHT22;70693;48.680;8.890;2023-06-22T00:59:44;21.70;99.90
26304;DHT22;70693;48.680;8.890;2023-06-22T01:02:10;21.70;99.90
26304;DHT22;70693;48.680;8.890;2023-06-22T01:04:38;21.70;99.90
26304;DHT22;70693;48.680;8.890;2023-06-22T01:07:28;21.70;99.90
26304;DHT22;70693;48.680;8.890;2023-06-22T01:10:07;21.70;99.90
26304;DHT22;70693;48.680;8.890;2023-06-22T01:12:40;21.70;99.90
26304;DHT22;70693;48.680;8.890;2023-06-22T01:15:33;21.70;99.90
26304;DHT22;70693;48.680;8.890;2023-06-22T01:18:04;21.70;99.90
26304;DHT22;70693;48.680;8.890;2023-06-22T01:20:31;21.70;99.90
26304;DHT22;70693;48.680;8.890;2023-06-22T01:25:57;21.60;99.90
26304;DHT22;70693;48.680;8.890;2023-06-22T01:31:10;21.60;99.90
26304;DHT22;70693;48.680;8.890;2023-06-22T01:33:39;21.60;99.90
26304;DHT22;70693;48.680;8.890;2023-06-22T01:36:06;21.60;99.90
26304;DHT22;70693;48.680;8.890;2023-06-22T01:38:33;21.60;99.90
26304;DHT22;70693;48.680;8.890;2023-06-22T01:41:00;21.70;99.90
26304;DHT22;70693;48.680;8.890;2023-06-22T01:43:30;21.60;99.90
26304;DHT22;70693;48.680;8.890;2023-06-22T01:45:58;21.60;99.90
26304;DHT22;70693;48.680;8.890;2023-06-22T01:48:24;21.60;99.90
26304;DHT22;70693;48.680;8.890;2023-06-22T01:50:52;21.60;99.90
26304;DHT22;70693;48.680;8.890;2023-06-22T01:53:23;21.60;99.90
26304;DHT22;70693;48.680;8.890;2023-06-22T01:55:50;21.60;99.90
26304;DHT22;70693;48.680;8.890;2023-06-22T01:58:16;21.60;99.90
26304;DHT22;70693;48.680;8.890;2023-06-22T02:00:50;21.60;99.90
26304;DHT22;70693;48.680;8.890;2023-06-22T02:03:21;21.60;99.90
26304;DHT22;70693;48.680;8.890;2023-06-22T02:06:08;21.60;99.90
26304;DHT22;70693;48.680;8.890;2023-06-22T02:08:46;21.60;99.90
26304;DHT22;70693;48.680;8.890;2023-06-22T02:11:13;21.60;99.90
26304;DHT22;70693;48.680;8.890;2023-06-22T02:13:40;21.60;99.90
26304;DHT22;70693;48.680;8.890;2023-06-22T02:16:12;21.60;99.90
26304;DHT22;70693;48.680;8.890;2023-06-22T02:18:37;21.60;99.90
26304;DHT22;70693;48.680;8.890;2023-06-22T02:21:05;21.60;99.90
26304;DHT22;70693;48.680;8.890;2023-06-22T02:23:31;21.60;99.90
26304;DHT22;70693;48.680;8.890;2023-06-22T02:26:00;21.60;99.90
26304;DHT22;70693;48.680;8.890;2023-06-22T02:28:26;21.60;99.90
26304;DHT22;70693;48.680;8.890;2023-06-22T02:30:51;21.60;99.90
26304;DHT22;70693;48.680;8.890;2023-06-22T02:33:17;21.60;99.90
26304;DHT22;70693;48.680;8.890;2023-06-22T02:35:43;21.60;99.90
26304;DHT22;70693;48.680;8.890;2023-06-22T02:38:11;21.60;99.90
26304;DHT22;70693;48.680;8.890;2023-06-22T02:40:36;21.60;99.90
26304;DHT22;70693;48.680;8.890;2023-06-22T02:43:02;21.50;99.90
26304;DHT22;70693;48.680;8.890;2023-06-22T02:45:28;21.50;99.90
26304;DHT22;70693;48.680;8.890;2023-06-22T02:47:55;21.60;99.90
26304;DHT22;70693;48.680;8.890;2023-06-22T02:50:21;21.50;99.90
26304;DHT22;70693;48.680;8.890;2023-06-22T02:52:46;21.60;99.90
26304;DHT22;70693;48.680;8.890;2023-06-22T02:55:12;21.50;99.90
26304;DHT22;70693;48.680;8.890;2023-06-22T02:57:37;21.60;99.90
26304;DHT22;70693;48.680;8.890;2023-06-22T03:00:09;21.50;99.90
26304;DHT22;70693;48.680;8.890;2023-06-22T03:02:43;21.50;99.90
26304;DHT22;70693;48.680;8.890;2023-06-22T03:05:09;21.50;99.90
26304;DHT22;70693;48.680;8.890;2023-06-22T03:07:41;21.50;99.90
26304;DHT22;70693;48.680;8.890;2023-06-22T03:10:11;21.50;99.90
26304;DHT22;70693;48.680;8.890;2023-06-22T03:12:37;21.50;99.90
26304;DHT22;70693;48.680;8.890;2023-06-22T03:15:05;21.50;99.90
26304;DHT22;70693;48.680;8.890;2023-06-22T03:17:31;21.50;99.90
26304;DHT22;70693;48.680;8.890;2023-06-22T03:19:57;21.50;99.90
26304;DHT22;70693;48.680;8.890;2023-06-22T03:22:22;21.50;99.90
26304;DHT22;70693;48.680;8.890;2023-06-22T03:24:48;21.50;99.90
26304;DHT22;70693;48.680;8.890;2023-06-22T03:27:14;21.50;99.90
26304;DHT22;70693;48.680;8.890;2023-06-22T03:29:39;21.50;99.90
26304;DHT22;70693;48.680;8.890;2023-06-22T03:32:05;21.50;99.90
26304;DHT22;70693;48.680;8.890;2023-06-22T03:34:32;21.50;99.90
26304;DHT22;70693;48.680;8.890;2023-06-22T03:37:01;21.50;99.90
26304;DHT22;70693;48.680;8.890;2023-06-22T03:39:27;21.50;99.90
26304;DHT22;70693;48.680;8.890;2023-06-22T03:41:52;21.50;99.90
26304;DHT22;70693;48.680;8.890;2023-06-22T03:44:18;21.50;99.90
26304;DHT22;70693;48.680;8.890;2023-06-22T03:46:44;21.50;99.90
26304;DHT22;70693;48.680;8.890;2023-06-22T03:49:10;21.50;99.90
26304;DHT22;70693;48.680;8.890;2023-06-22T03:51:35;21.50;99.90
26304;DHT22;70693;48.680;8.890;2023-06-22T03:54:01;21.40;99.90
26304;DHT22;70693;48.680;8.890;2023-06-22T03:56:26;21.50;99.90
26304;DHT22;70693;48.680;8.890;2023-06-22T03:58:52;21.50;99.90
26304;DHT22;70693;48.680;8.890;2023-06-22T04:01:18;21.40;99.90
26304;DHT22;70693;48.680;8.890;2023-06-22T04:03:44;21.40;99.90
26304;DHT22;70693;48.680;8.890;2023-06-22T04:06:10;21.50;99.90
26304;DHT22;70693;48.680;8.890;2023-06-22T04:08:35;21.40;99.90
26304;DHT22;70693;48.680;8.890;2023-06-22T04:11:01;21.40;99.90
26304;DHT22;70693;48.680;8.890;2023-06-22T04:13:27;21.40;99.90
26304;DHT22;70693;48.680;8.890;2023-06-22T04:15:52;21.50;99.90
26304;DHT22;70693;48.680;8.890;2023-06-22T04:18:18;21.40;99.90
26304;DHT22;70693;48.680;8.890;2023-06-22T04:20:43;21.40;99.90
26304;DHT22;70693;48.680;8.890;2023-06-22T04:23:12;21.40;99.90
26304;DHT22;70693;48.680;8.890;2023-06-22T04:25:38;21.40;99.90
26304;DHT22;70693;48.680;8.890;2023-06-22T04:28:04;21.40;99.90
26304;DHT22;70693;48.680;8.890;2023-06-22T04:30:29;21.40;99.90
26304;DHT22;70693;48.680;8.890;2023-06-22T04:32:57;21.40;99.90
26304;DHT22;70693;48.680;8.890;2023-06-22T04:35:23;21.40;99.90
26304;DHT22;70693;48.680;8.890;2023-06-22T04:37:49;21.40;99.90
26304;DHT22;70693;48.680;8.890;2023-06-22T04:40:15;21.40;99.90
26304;DHT22;70693;48.680;8.890;2023-06-22T04:42:41;21.40;99.90
26304;DHT22;70693;48.680;8.890;2023-06-22T04:45:17;21.40;99.90
26304;DHT22;70693;48.680;8.890;2023-06-22T04:47:43;21.40;99.90
26304;DHT22;70693;48.680;8.890;2023-06-22T04:50:11;21.30;99.90
26304;DHT22;70693;48.680;8.890;2023-06-22T04:52:37;21.20;99.90
26304;DHT22;70693;48.680;8.890;2023-06-22T04:55:03;21.10;99.90
26304;DHT22;70693;48.680;8.890;2023-06-22T04:57:29;21.20;99.90
26304;DHT22;70693;48.680;8.890;2023-06-22T05:00:02;21.20;99.90
26304;DHT22;70693;48.680;8.890;2023-06-22T05:02:37;21.30;99.90
26304;DHT22;70693;48.680;8.890;2023-06-22T05:05:03;21.30;99.90
26304;DHT22;70693;48.680;8.890;2023-06-22T05:07:36;21.20;99.90
26304;DHT22;70693;48.680;8.890;2023-06-22T05:10:05;21.30;99.90
26304;DHT22;70693;48.680;8.890;2023-06-22T05:12:30;21.30;99.90
26304;DHT22;70693;48.680;8.890;2023-06-22T05:14:56;21.30;99.90
26304;DHT22;70693;48.680;8.890;2023-06-22T05:17:22;21.30;99.90
26304;DHT22;70693;48.680;8.890;2023-06-22T05:19:48;21.30;99.90
26304;DHT22;70693;48.680;8.890;2023-06-22T05:22:17;21.30;99.90
26304;DHT22;70693;48.680;8.890;2023-06-22T05:24:43;21.30;99.90
26304;DHT22;70693;48.680;8.890;2023-06-22T05:27:10;21.40;99.90
26304;DHT22;70693;48.680;8.890;2023-06-22T05:29:36;21.40;99.90
26304;DHT22;70693;48.680;8.890;2023-06-22T05:32:02;21.30;99.90
26304;DHT22;70693;48.680;8.890;2023-06-22T05:34:28;21.40;99.90
26304;DHT22;70693;48.680;8.890;2023-06-22T05:36:54;21.40;99.90
26304;DHT22;70693;48.680;8.890;2023-06-22T05:39:19;21.40;99.90
26304;DHT22;70693;48.680;8.890;2023-06-22T05:41:46;21.40;99.90
26304;DHT22;70693;48.680;8.890;2023-06-22T05:44:12;21.40;99.90
26304;DHT22;70693;48.680;8.890;2023-06-22T05:46:40;21.40;99.90
26304;DHT22;70693;48.680;8.890;2023-06-22T05:49:10;21.40;99.90
26304;DHT22;70693;48.680;8.890;2023-06-22T05:51:35;21.40;99.90
26304;DHT22;70693;48.680;8.890;2023-06-22T05:54:01;21.40;99.90
26304;DHT22;70693;48.680;8.890;2023-06-22T05:56:27;21.40;99.90
26304;DHT22;70693;48.680;8.890;2023-06-22T05:58:53;21.40;99.90
26304;DHT22;70693;48.680;8.890;2023-06-22T06:01:19;21.40;99.90
26304;DHT22;70693;48.680;8.890;2023-06-22T06:03:44;21.40;99.90
26304;DHT22;70693;48.680;8.890;2023-06-22T06:06:10;21.40;99.90
26304;DHT22;70693;48.680;8.890;2023-06-22T06:08:39;21.40;99.90
26304;DHT22;70693;48.680;8.890;2023-06-22T06:11:05;21.40;99.90
26304;DHT22;70693;48.680;8.890;2023-06-22T06:13:30;21.40;99.90
26304;DHT22;70693;48.680;8.890;2023-06-22T06:15:56;21.40;99.90
26304;DHT22;70693;48.680;8.890;2023-06-22T06:18:22;21.40;99.90
26304;DHT22;70693;48.680;8.890;2023-06-22T06:20:48;21.40;99.90
26304;DHT22;70693;48.680;8.890;2023-06-22T06:23:13;21.40;99.90
26304;DHT22;70693;48.680;8.890;2023-06-22T06:25:39;21.40;99.90
26304;DHT22;70693;48.680;8.890;2023-06-22T06:28:05;21.40;99.90
26304;DHT22;70693;48.680;8.890;2023-06-22T06:30:30;21.50;99.90
26304;DHT22;70693;48.680;8.890;2023-06-22T06:32:56;21.40;99.90
26304;DHT22;70693;48.680;8.890;2023-06-22T06:35:22;21.50;99.90
26304;DHT22;70693;48.680;8.890;2023-06-22T06:37:49;21.50;99.90
26304;DHT22;70693;48.680;8.890;2023-06-22T06:40:16;21.50;99.90
26304;DHT22;70693;48.680;8.890;2023-06-22T06:42:47;21.50;99.90
26304;DHT22;70693;48.680;8.890;2023-06-22T06:45:20;21.50;99.90
26304;DHT22;70693;48.680;8.890;2023-06-22T06:47:47;21.50;99.90
26304;DHT22;70693;48.680;8.890;2023-06-22T06:50:13;21.50;99.90
26304;DHT22;70693;48.680;8.890;2023-06-22T06:52:39;21.50;99.90
26304;DHT22;70693;48.680;8.890;2023-06-22T06:55:06;21.50;99.90
26304;DHT22;70693;48.680;8.890;2023-06-22T06:57:33;21.50;99.90
26304;DHT22;70693;48.680;8.890;2023-06-22T06:59:59;21.50;99.90
26304;DHT22;70693;48.680;8.890;2023-06-22T07:02:26;21.50;99.90
26304;DHT22;70693;48.680;8.890;2023-06-22T07:04:53;21.50;99.90
26304;DHT22;70693;48.680;8.890;2023-06-22T07:07:21;21.50;99.90
26304;DHT22;70693;48.680;8.890;2023-06-22T07:09:46;21.60;99.90
26304;DHT22;70693;48.680;8.890;2023-06-22T07:12:12;21.70;99.90
26304;DHT22;70693;48.680;8.890;2023-06-22T07:14:37;21.70;99.90
26304;DHT22;70693;48.680;8.890;2023-06-22T07:17:03;21.70;99.90
26304;DHT22;70693;48.680;8.890;2023-06-22T07:19:29;21.70;99.90
26304;DHT22;70693;48.680;8.890;2023-06-22T07:21:56;21.70;99.90
26304;DHT22;70693;48.680;8.890;2023-06-22T07:24:22;21.70;99.90
26304;DHT22;70693;48.680;8.890;2023-06-22T07:26:49;21.70;99.90
26304;DHT22;70693;48.680;8.890;2023-06-22T07:29:17;21.70;99.90
26304;DHT22;70693;48.680;8.890;2023-06-22T07:31:43;21.70;99.90
26304;DHT22;70693;48.680;8.890;2023-06-22T07:34:08;21.70;99.90
26304;DHT22;70693;48.680;8.890;2023-06-22T07:36:34;21.70;99.90
26304;DHT22;70693;48.680;8.890;2023-06-22T07:39:04;21.70;99.90
26304;DHT22;70693;48.680;8.890;2023-06-22T07:41:30;21.70;99.90
26304;DHT22;70693;48.680;8.890;2023-06-22T07:43:55;21.80;99.90
26304;DHT22;70693;48.680;8.890;2023-06-22T07:46:22;21.80;99.90
26304;DHT22;70693;48.680;8.890;2023-06-22T07:48:47;22.00;99.90
26304;DHT22;70693;48.680;8.890;2023-06-22T07:51:13;22.10;99.90
26304;DHT22;70693;48.680;8.890;2023-06-22T07:53:43;22.10;99.90
26304;DHT22;70693;48.680;8.890;2023-06-22T07:56:12;22.10;99.90
26304;DHT22;70693;48.680;8.890;2023-06-22T07:58:38;22.00;99.90
26304;DHT22;70693;48.680;8.890;2023-06-22T08:01:04;22.00;99.90
26304;DHT22;70693;48.680;8.890;2023-06-22T08:03:30;22.00;99.90
26304;DHT22;70693;48.680;8.890;2023-06-22T08:05:55;21.90;99.90
26304;DHT22;70693;48.680;8.890;2023-06-22T08:08:21;21.90;99.90
26304;DHT22;70693;48.680;8.890;2023-06-22T08:10:47;21.90;99.90
26304;DHT22;70693;48.680;8.890;2023-06-22T08:13:12;21.90;99.90
26304;DHT22;70693;48.680;8.890;2023-06-22T08:15:38;21.90;99.90
26304;DHT22;70693;48.680;8.890;2023-06-22T08:18:04;21.90;99.90
26304;DHT22;70693;48.680;8.890;2023-06-22T08:20:29;21.90;99.90
26304;DHT22;70693;48.680;8.890;2023-06-22T08:22:55;21.90;99.90
26304;DHT22;70693;48.680;8.890;2023-06-22T08:25:23;21.80;99.90
26304;DHT22;70693;48.680;8.890;2023-06-22T08:27:49;21.90;99.90
26304;DHT22;70693;48.680;8.890;2023-06-22T08:30:15;21.90;99.90
26304;DHT22;70693;48.680;8.890;2023-06-22T08:32:41;21.90;99.90
26304;DHT22;70693;48.680;8.890;2023-06-22T08:35:07;21.90;99.90
26304;DHT22;70693;48.680;8.890;2023-06-22T08:37:36;21.90;99.90
26304;DHT22;70693;48.680;8.890;2023-06-22T08:40:04;21.90;99.90
26304;DHT22;70693;48.680;8.890;2023-06-22T08:42:33;21.90;99.90
26304;DHT22;70693;48.680;8.890;2023-06-22T08:44:59;21.90;99.90
26304;DHT22;70693;48.680;8.890;2023-06-22T08:47:26;21.90;99.90
26304;DHT22;70693;48.680;8.890;2023-06-22T08:49:52;22.00;99.90
26304;DHT22;70693;48.680;8.890;2023-06-22T08:52:18;22.00;99.90
26304;DHT22;70693;48.680;8.890;2023-06-22T08:54:45;22.00;99.90
26304;DHT22;70693;48.680;8.890;2023-06-22T08:57:11;22.00;99.90
26304;DHT22;70693;48.680;8.890;2023-06-22T08:59:37;22.10;99.90
26304;DHT22;70693;48.680;8.890;2023-06-22T09:02:02;22.10;99.90
26304;DHT22;70693;48.680;8.890;2023-06-22T09:04:28;22.10;99.90
26304;DHT22;70693;48.680;8.890;2023-06-22T09:06:54;22.10;99.90
26304;DHT22;70693;48.680;8.890;2023-06-22T09:09:21;22.10;99.90
26304;DHT22;70693;48.680;8.890;2023-06-22T09:11:47;22.10;99.90
26304;DHT22;70693;48.680;8.890;2023-06-22T09:14:12;22.10;99.90
26304;DHT22;70693;48.680;8.890;2023-06-22T09:16:38;22.10;99.90
26304;DHT22;70693;48.680;8.890;2023-06-22T09:19:04;22.10;99.90
26304;DHT22;70693;48.680;8.890;2023-06-22T09:21:29;22.10;99.90
26304;DHT22;70693;48.680;8.890;2023-06-22T09:23:55;22.10;99.90
26304;DHT22;70693;48.680;8.890;2023-06-22T09:26:22;22.10;99.90
26304;DHT22;70693;48.680;8.890;2023-06-22T09:28:49;22.10;99.90
26304;DHT22;70693;48.680;8.890;2023-06-22T09:31:15;22.10;99.90
26304;DHT22;70693;48.680;8.890;2023-06-22T09:33:42;22.10;99.90
26304;DHT22;70693;48.680;8.890;2023-06-22T09:36:07;22.10;99.90
26304;DHT22;70693;48.680;8.890;2023-06-22T09:38:37;22.10;99.90
26304;DHT22;70693;48.680;8.890;2023-06-22T09:41:02;22.10;99.90
26304;DHT22;70693;48.680;8.890;2023-06-22T09:43:29;22.10;99.90
26304;DHT22;70693;48.680;8.890;2023-06-22T09:45:55;22.10;99.90
26304;DHT22;70693;48.680;8.890;2023-06-22T09:48:20;22.10;99.90
26304;DHT22;70693;48.680;8.890;2023-06-22T09:50:46;22.10;99.90
26304;DHT22;70693;48.680;8.890;2023-06-22T09:53:12;22.10;99.90
26304;DHT22;70693;48.680;8.890;2023-06-22T09:55:37;22.10;99.90
26304;DHT22;70693;48.680;8.890;2023-06-22T09:58:03;22.10;99.90
26304;DHT22;70693;48.680;8.890;2023-06-22T10:00:28;22.10;99.90
26304;DHT22;70693;48.680;8.890;2023-06-22T10:02:54;22.10;99.90
26304;DHT22;70693;48.680;8.890;2023-06-22T10:05:21;22.10;99.90
26304;DHT22;70693;48.680;8.890;2023-06-22T10:07:47;22.10;99.90
26304;DHT22;70693;48.680;8.890;2023-06-22T10:10:13;22.10;99.90
26304;DHT22;70693;48.680;8.890;2023-06-22T10:12:47;22.10;99.90
26304;DHT22;70693;48.680;8.890;2023-06-22T10:15:14;22.10;99.90
26304;DHT22;70693;48.680;8.890;2023-06-22T10:17:40;22.10;99.90
26304;DHT22;70693;48.680;8.890;2023-06-22T10:20:06;22.10;99.90
26304;DHT22;70693;48.680;8.890;2023-06-22T10:22:38;22.10;99.90
26304;DHT22;70693;48.680;8.890;2023-06-22T10:25:04;22.10;99.90
26304;DHT22;70693;48.680;8.890;2023-06-22T10:27:29;22.10;99.90
26304;DHT22;70693;48.680;8.890;2023-06-22T10:29:56;22.10;99.90
26304;DHT22;70693;48.680;8.890;2023-06-22T10:32:22;22.10;99.90
26304;DHT22;70693;48.680;8.890;2023-06-22T10:34:48;22.10;99.90
26304;DHT22;70693;48.680;8.890;2023-06-22T10:37:13;22.10;99.90
26304;DHT22;70693;48.680;8.890;2023-06-22T10:39:39;22.10;99.90
26304;DHT22;70693;48.680;8.890;2023-06-22T10:42:05;22.10;99.90
26304;DHT22;70693;48.680;8.890;2023-06-22T10:44:30;22.10;99.90
26304;DHT22;70693;48.680;8.890;2023-06-22T10:46:56;22.10;99.90
26304;DHT22;70693;48.680;8.890;2023-06-22T10:49:22;22.10;99.90
26304;DHT22;70693;48.680;8.890;2023-06-22T10:51:47;22.10;99.90
26304;DHT22;70693;48.680;8.890;2023-06-22T10:54:13;22.10;99.90
26304;DHT22;70693;48.680;8.890;2023-06-22T10:56:40;22.10;99.90
26304;DHT22;70693;48.680;8.890;2023-06-22T10:59:05;22.10;99.90
26304;DHT22;70693;48.680;8.890;2023-06-22T11:01:31;22.10;99.90
26304;DHT22;70693;48.680;8.890;2023-06-22T11:03:58;22.10;99.90
26304;DHT22;70693;48.680;8.890;2023-06-22T11:06:24;22.10;99.90
26304;DHT22;70693;48.680;8.890;2023-06-22T11:08:50;22.10;99.90
26304;DHT22;70693;48.680;8.890;2023-06-22T11:11:15;22.10;99.90
26304;DHT22;70693;48.680;8.890;2023-06-22T11:13:43;22.10;99.90
26304;DHT22;70693;48.680;8.890;2023-06-22T11:16:10;22.10;99.90
26304;DHT22;70693;48.680;8.890;2023-06-22T11:18:35;22.10;99.90
26304;DHT22;70693;48.680;8.890;2023-06-22T11:21:01;22.10;99.90
26304;DHT22;70693;48.680;8.890;2023-06-22T11:23:27;22.10;99.90
26304;DHT22;70693;48.680;8.890;2023-06-22T11:25:54;22.10;99.90
26304;DHT22;70693;48.680;8.890;2023-06-22T11:28:19;22.10;99.90
26304;DHT22;70693;48.680;8.890;2023-06-22T11:30:45;22.10;99.90
26304;DHT22;70693;48.680;8.890;2023-06-22T11:33:11;22.10;99.90
26304;DHT22;70693;48.680;8.890;2023-06-22T11:35:37;22.10;99.90
26304;DHT22;70693;48.680;8.890;2023-06-22T11:38:02;22.10;99.90
26304;DHT22;70693;48.680;8.890;2023-06-22T11:40:29;22.10;99.90
26304;DHT22;70693;48.680;8.890;2023-06-22T11:42:55;22.10;99.90
26304;DHT22;70693;48.680;8.890;2023-06-22T11:45:21;22.10;99.90
26304;DHT22;70693;48.680;8.890;2023-06-22T11:47:47;22.10;99.90
26304;DHT22;70693;48.680;8.890;2023-06-22T11:50:12;22.10;99.90
26304;DHT22;70693;48.680;8.890;2023-06-22T11:52:38;22.10;99.90
26304;DHT22;70693;48.680;8.890;2023-06-22T11:55:04;22.10;99.90
26304;DHT22;70693;48.680;8.890;2023-06-22T11:57:34;22.10;99.90
26304;DHT22;70693;48.680;8.890;2023-06-22T12:00:00;22.10;99.90
26304;DHT22;70693;48.680;8.890;2023-06-22T12:02:25;22.10;99.90
26304;DHT22;70693;48.680;8.890;2023-06-22T12:04:51;22.10;99.90
26304;DHT22;70693;48.680;8.890;2023-06-22T12:07:18;22.10;99.90
26304;DHT22;70693;48.680;8.890;2023-06-22T12:09:43;22.10;99.90
26304;DHT22;70693;48.680;8.890;2023-06-22T12:12:09;22.10;99.90
26304;DHT22;70693;48.680;8.890;2023-06-22T12:14:35;22.10;99.90
26304;DHT22;70693;48.680;8.890;2023-06-22T12:17:01;22.10;99.90
26304;DHT22;70693;48.680;8.890;2023-06-22T12:19:26;22.10;99.90
26304;DHT22;70693;48.680;8.890;2023-06-22T12:21:52;22.10;99.90
26304;DHT22;70693;48.680;8.890;2023-06-22T12:24:18;22.10;99.90
26304;DHT22;70693;48.680;8.890;2023-06-22T12:26:43;22.10;99.90
26304;DHT22;70693;48.680;8.890;2023-06-22T12:29:09;22.10;99.90
26304;DHT22;70693;48.680;8.890;2023-06-22T12:31:36;22.10;99.90
26304;DHT22;70693;48.680;8.890;2023-06-22T12:34:04;22.10;99.90
26304;DHT22;70693;48.680;8.890;2023-06-22T12:36:29;22.10;99.90
26304;DHT22;70693;48.680;8.890;2023-06-22T12:38:55;22.10;99.90
26304;DHT22;70693;48.680;8.890;2023-06-22T12:41:21;22.10;99.90
26304;DHT22;70693;48.680;8.890;2023-06-22T12:43:46;22.10;99.90
26304;DHT22;70693;48.680;8.890;2023-06-22T12:46:12;22.10;99.90
26304;DHT22;70693;48.680;8.890;2023-06-22T12:48:37;22.00;99.90
26304;DHT22;70693;48.680;8.890;2023-06-22T12:51:07;22.10;99.90
26304;DHT22;70693;48.680;8.890;2023-06-22T12:53:34;22.10;99.90
26304;DHT22;70693;48.680;8.890;2023-06-22T12:55:59;22.10;99.90
26304;DHT22;70693;48.680;8.890;2023-06-22T12:58:25;22.10;99.90
26304;DHT22;70693;48.680;8.890;2023-06-22T13:00:50;22.10;99.90
26304;DHT22;70693;48.680;8.890;2023-06-22T13:03:16;22.10;99.90
26304;DHT22;70693;48.680;8.890;2023-06-22T13:05:42;22.10;99.90
26304;DHT22;70693;48.680;8.890;2023-06-22T13:08:07;22.10;99.90
26304;DHT22;70693;48.680;8.890;2023-06-22T13:10:33;22.10;99.90
26304;DHT22;70693;48.680;8.890;2023-06-22T13:12:59;22.10;99.90
26304;DHT22;70693;48.680;8.890;2023-06-22T13:15:29;22.10;99.90
26304;DHT22;70693;48.680;8.890;2023-06-22T13:17:56;22.00;99.90
26304;DHT22;70693;48.680;8.890;2023-06-22T13:20:21;22.00;99.90
26304;DHT22;70693;48.680;8.890;2023-06-22T13:22:47;22.10;99.90
26304;DHT22;70693;48.680;8.890;2023-06-22T13:25:12;22.00;99.90
26304;DHT22;70693;48.680;8.890;2023-06-22T13:27:40;22.00;99.90
26304;DHT22;70693;48.680;8.890;2023-06-22T13:30:06;22.00;99.90
26304;DHT22;70693;48.680;8.890;2023-06-22T13:32:32;22.00;99.90
26304;DHT22;70693;48.680;8.890;2023-06-22T13:34:57;22.00;99.90
26304;DHT22;70693;48.680;8.890;2023-06-22T13:37:23;22.00;99.90
26304;DHT22;70693;48.680;8.890;2023-06-22T13:39:49;22.00;99.90
26304;DHT22;70693;48.680;8.890;2023-06-22T13:42:14;22.10;99.90
26304;DHT22;70693;48.680;8.890;2023-06-22T13:44:40;22.10;99.90
26304;DHT22;70693;48.680;8.890;2023-06-22T13:47:06;22.10;99.90
26304;DHT22;70693;48.680;8.890;2023-06-22T13:49:32;22.10;99.90
26304;DHT22;70693;48.680;8.890;2023-06-22T13:51:58;22.10;99.90
26304;DHT22;70693;48.680;8.890;2023-06-22T13:54:24;22.10;99.90
26304;DHT22;70693;48.680;8.890;2023-06-22T13:56:49;22.10;99.90
26304;DHT22;70693;48.680;8.890;2023-06-22T13:59:15;22.10;99.90
26304;DHT22;70693;48.680;8.890;2023-06-22T14:01:40;22.10;99.90
26304;DHT22;70693;48.680;8.890;2023-06-22T14:04:07;22.10;99.90
26304;DHT22;70693;48.680;8.890;2023-06-22T14:06:32;22.10;99.90
26304;DHT22;70693;48.680;8.890;2023-06-22T14:08:59;22.10;99.90
26304;DHT22;70693;48.680;8.890;2023-06-22T14:11:25;22.10;99.90
26304;DHT22;70693;48.680;8.890;2023-06-22T14:13:51;22.10;99.90
26304;DHT22;70693;48.680;8.890;2023-06-22T14:16:17;22.10;99.90
26304;DHT22;70693;48.680;8.890;2023-06-22T14:18:42;22.10;99.90
26304;DHT22;70693;48.680;8.890;2023-06-22T14:21:08;22.10;99.90
26304;DHT22;70693;48.680;8.890;2023-06-22T14:23:33;22.10;99.90
26304;DHT22;70693;48.680;8.890;2023-06-22T14:25:59;22.10;99.90
26304;DHT22;70693;48.680;8.890;2023-06-22T14:28:25;22.10;99.90
26304;DHT22;70693;48.680;8.890;2023-06-22T14:30:51;22.10;99.90
26304;DHT22;70693;48.680;8.890;2023-06-22T14:33:16;22.10;99.90
26304;DHT22;70693;48.680;8.890;2023-06-22T14:35:42;22.10;99.90
26304;DHT22;70693;48.680;8.890;2023-06-22T14:38:08;22.10;99.90
26304;DHT22;70693;48.680;8.890;2023-06-22T14:40:33;22.10;99.90
26304;DHT22;70693;48.680;8.890;2023-06-22T14:42:59;22.10;99.90
26304;DHT22;70693;48.680;8.890;2023-06-22T14:45:24;22.10;99.90
26304;DHT22;70693;48.680;8.890;2023-06-22T14:47:50;22.10;99.90
26304;DHT22;70693;48.680;8.890;2023-06-22T14:50:16;22.10;99.90
26304;DHT22;70693;48.680;8.890;2023-06-22T14:52:41;22.10;99.90
26304;DHT22;70693;48.680;8.890;2023-06-22T14:55:08;22.10;99.90
26304;DHT22;70693;48.680;8.890;2023-06-22T14:57:33;22.10;99.90
26304;DHT22;70693;48.680;8.890;2023-06-22T14:59:59;22.10;99.90
26304;DHT22;70693;48.680;8.890;2023-06-22T15:02:26;22.10;99.90
26304;DHT22;70693;48.680;8.890;2023-06-22T15:04:52;22.10;99.90
26304;DHT22;70693;48.680;8.890;2023-06-22T15:07:18;22.10;99.90
26304;DHT22;70693;48.680;8.890;2023-06-22T15:09:45;22.10;99.90
26304;DHT22;70693;48.680;8.890;2023-06-22T15:12:11;22.10;99.90
26304;DHT22;70693;48.680;8.890;2023-06-22T15:14:43;22.10;99.90
26304;DHT22;70693;48.680;8.890;2023-06-22T15:17:09;22.10;99.90
26304;DHT22;70693;48.680;8.890;2023-06-22T15:19:38;22.10;99.90
26304;DHT22;70693;48.680;8.890;2023-06-22T15:22:07;22.10;99.90
26304;DHT22;70693;48.680;8.890;2023-06-22T15:24:33;22.10;99.90
26304;DHT22;70693;48.680;8.890;2023-06-22T15:26:59;22.10;99.90
26304;DHT22;70693;48.680;8.890;2023-06-22T15:29:26;22.10;99.90
26304;DHT22;70693;48.680;8.890;2023-06-22T15:31:52;22.10;99.90